createdAt,value
2023-01-03T00:01:07.659Z,5.15
2023-01-03T00:03:35.448Z,3.83
2023-01-03T00:06:03.279Z,2.45
2023-01-03T00:08:31.188Z,2.10
2023-01-03T00:10:59.137Z,5.63
2023-01-03T00:13:26.005Z,4.20
2023-01-03T00:15:55.179Z,4.00
2023-01-03T00:18:22.989Z,4.32
2023-01-03T00:20:50.863Z,3.92
2023-01-03T00:23:18.652Z,8.20
2023-01-03T00:25:46.448Z,7.07
2023-01-03T00:28:14.228Z,3.75
2023-01-03T00:30:42.038Z,3.33
2023-01-03T00:33:11.205Z,4.35
2023-01-03T00:35:39.019Z,2.53
2023-01-03T00:38:06.833Z,2.88
2023-01-03T00:40:34.622Z,3.63
2023-01-03T00:43:28.374Z,2.47
2023-01-03T00:45:56.364Z,2.45
2023-01-03T00:48:25.937Z,2.85
2023-01-03T00:50:53.931Z,3.10
2023-01-03T00:53:21.773Z,4.10
2023-01-03T00:55:49.959Z,3.17
2023-01-03T00:58:17.766Z,5.35
2023-01-03T01:00:45.548Z,2.47
2023-01-03T01:03:13.533Z,3.38
2023-01-03T01:05:42.805Z,3.60
2023-01-03T01:08:10.571Z,3.95
2023-01-03T01:11:01.619Z,4.40
2023-01-03T01:13:30.149Z,2.70
2023-01-03T01:16:02.129Z,2.28
2023-01-03T01:18:30.357Z,3.72
2023-01-03T01:20:59.663Z,4.60
2023-01-03T01:23:27.447Z,2.13
2023-01-03T01:25:55.226Z,1.92
2023-01-03T01:28:22.994Z,2.00
2023-01-03T01:30:50.813Z,3.28
2023-01-03T01:33:18.705Z,1.00
2023-01-03T01:35:46.485Z,2.50
2023-01-03T01:38:15.619Z,0.95
2023-01-03T01:40:43.461Z,3.80
2023-01-03T01:43:35.541Z,0.70
2023-01-03T01:46:15.639Z,0.80
2023-01-03T01:48:43.700Z,1.15
2023-01-03T01:51:12.886Z,0.73
2023-01-03T01:53:43.644Z,1.90
2023-01-03T01:56:15.530Z,0.95
2023-01-03T01:58:45.937Z,4.13
2023-01-03T02:01:15.547Z,2.15
2023-01-03T02:03:45.589Z,1.40
2023-01-03T02:06:16.261Z,1.52
2023-01-03T02:08:45.498Z,0.80
2023-01-03T02:11:28.413Z,1.55
2023-01-03T02:14:05.538Z,0.75
2023-01-03T02:16:50.396Z,0.63
2023-01-03T02:19:44.693Z,2.03
2023-01-03T02:22:37.544Z,1.20
2023-01-03T02:25:46.102Z,0.73
2023-01-03T02:28:42.838Z,1.00
2023-01-03T02:31:17.368Z,0.88
2023-01-03T02:33:54.861Z,0.77
2023-01-03T02:36:30.541Z,0.30
2023-01-03T02:39:03.943Z,0.65
2023-01-03T02:41:42.596Z,2.13
2023-01-03T02:44:18.494Z,0.40
2023-01-03T02:46:51.596Z,0.40
2023-01-03T02:49:24.228Z,0.73
2023-01-03T02:51:55.908Z,1.13
2023-01-03T02:54:28.631Z,0.85
2023-01-03T02:57:01.541Z,0.45
2023-01-03T02:59:35.747Z,0.40
2023-01-03T03:02:08.640Z,0.43
2023-01-03T03:04:39.547Z,0.68
2023-01-03T03:07:14.516Z,0.95
2023-01-03T03:09:56.288Z,0.50
2023-01-03T03:12:43.964Z,0.40
2023-01-03T03:15:15.530Z,0.20
2023-01-03T03:17:46.355Z,0.30
2023-01-03T03:20:33.824Z,0.95
2023-01-03T03:23:23.700Z,0.30
2023-01-03T03:25:55.664Z,0.60
2023-01-03T03:28:37.026Z,0.30
2023-01-03T03:31:09.896Z,2.25
2023-01-03T03:33:44.877Z,0.40
2023-01-03T03:36:17.114Z,0.80
2023-01-03T03:38:46.067Z,1.45
2023-01-03T03:41:38.515Z,1.55
2023-01-03T03:44:31.992Z,0.77
2023-01-03T03:47:06.084Z,0.50
2023-01-03T03:49:37.932Z,0.52
2023-01-03T03:52:09.194Z,0.75
2023-01-03T03:54:40.191Z,0.57
2023-01-03T03:57:13.259Z,0.85
2023-01-03T03:59:44.419Z,0.80
2023-01-03T04:02:14.285Z,0.73
2023-01-03T04:04:48.210Z,1.45
2023-01-03T04:07:16.076Z,0.98
2023-01-03T04:09:43.958Z,1.85
2023-01-03T04:12:11.773Z,1.02
2023-01-03T04:14:39.572Z,0.88
2023-01-03T04:17:07.362Z,0.95
2023-01-03T04:19:35.227Z,0.80
2023-01-03T04:22:04.385Z,0.68
2023-01-03T04:24:32.173Z,1.00
2023-01-03T04:27:00.028Z,0.90
2023-01-03T04:29:27.819Z,1.50
2023-01-03T04:31:55.649Z,1.10
2023-01-03T04:34:23.696Z,1.77
2023-01-03T04:36:51.483Z,1.48
2023-01-03T04:39:20.630Z,0.98
2023-01-03T04:41:48.427Z,2.05
2023-01-03T04:44:15.264Z,0.88
2023-01-03T04:46:47.629Z,0.82
2023-01-03T04:49:18.570Z,0.40
2023-01-03T04:51:46.347Z,1.30
2023-01-03T04:54:14.162Z,1.00
2023-01-03T04:56:43.327Z,2.03
2023-01-03T04:59:11.124Z,1.23
2023-01-03T05:01:39.064Z,1.13
2023-01-03T05:04:08.465Z,0.73
2023-01-03T05:06:36.333Z,2.53
2023-01-03T05:09:04.202Z,0.98
2023-01-03T05:11:31.979Z,0.85
2023-01-03T05:14:01.146Z,1.98
2023-01-03T05:16:28.945Z,1.55
2023-01-03T05:18:59.042Z,4.85
2023-01-03T05:21:44.396Z,1.80
2023-01-03T05:24:30.888Z,2.50
2023-01-03T05:27:00.470Z,1.48
2023-01-03T05:29:30.826Z,2.67
2023-01-03T05:31:58.735Z,1.20
2023-01-03T05:34:26.620Z,0.77
2023-01-03T05:36:54.405Z,1.98
2023-01-03T05:39:22.214Z,0.73
2023-01-03T05:42:02.240Z,2.05
2023-01-03T05:44:33.703Z,0.60
2023-01-03T05:47:03.024Z,1.38
2023-01-03T05:49:30.906Z,1.48
2023-01-03T05:51:58.742Z,1.02
2023-01-03T05:54:26.536Z,1.48
2023-01-03T05:56:54.332Z,1.83
2023-01-03T05:59:22.757Z,1.58
2023-01-03T06:01:52.055Z,1.27
2023-01-03T06:04:20.198Z,1.58
2023-01-03T06:06:48.056Z,1.20
2023-01-03T06:09:15.931Z,1.50
2023-01-03T06:11:43.708Z,2.50
2023-01-03T06:14:11.753Z,0.82
2023-01-03T06:16:57.039Z,1.58
2023-01-03T06:19:26.333Z,1.33
2023-01-03T06:21:54.114Z,1.65
2023-01-03T06:24:21.919Z,1.00
2023-01-03T06:26:49.706Z,1.10
2023-01-03T06:29:17.535Z,2.20
2023-01-03T06:31:45.355Z,1.10
2023-01-03T06:34:13.179Z,1.00
2023-01-03T06:36:42.331Z,1.27
2023-01-03T06:39:10.130Z,3.70
2023-01-03T06:41:37.974Z,1.60
2023-01-03T06:44:06.122Z,1.75
2023-01-03T06:46:51.779Z,2.28
2023-01-03T06:49:36.989Z,1.67
2023-01-03T06:52:28.585Z,2.92
2023-01-03T06:54:56.513Z,2.03
2023-01-03T06:57:26.088Z,2.28
2023-01-03T06:59:55.035Z,2.95
2023-01-03T07:02:23.054Z,1.20
2023-01-03T07:04:51.018Z,1.73
2023-01-03T07:07:20.220Z,1.73
2023-01-03T07:09:48.004Z,0.98
2023-01-03T07:12:37.409Z,1.10
2023-01-03T07:15:05.901Z,1.30
2023-01-03T07:17:33.736Z,2.53
2023-01-03T07:20:01.663Z,2.60
2023-01-03T07:22:30.996Z,3.53
2023-01-03T07:24:58.795Z,2.50
2023-01-03T07:27:26.595Z,1.95
2023-01-03T07:29:54.408Z,2.05
2023-01-03T07:32:22.201Z,2.95
2023-01-03T07:34:50.017Z,2.42
2023-01-03T07:37:17.851Z,3.30
2023-01-03T07:39:47.016Z,3.35
2023-01-03T07:42:32.734Z,3.63
2023-01-03T07:45:00.521Z,4.90
2023-01-03T07:47:28.319Z,1.98
2023-01-03T07:49:56.117Z,3.22
2023-01-03T07:52:23.910Z,1.92
2023-01-03T07:54:53.033Z,1.55
2023-01-03T07:57:20.846Z,1.58
2023-01-03T07:59:48.633Z,2.25
2023-01-03T08:02:16.794Z,3.22
2023-01-03T08:04:44.835Z,1.75
2023-01-03T08:07:13.000Z,3.97
2023-01-03T08:09:58.459Z,4.18
2023-01-03T08:12:45.269Z,4.15
2023-01-03T08:15:13.055Z,4.57
2023-01-03T08:17:40.879Z,2.97
2023-01-03T08:20:09.753Z,2.25
2023-01-03T08:22:37.567Z,2.05
2023-01-03T08:25:05.990Z,3.60
2023-01-03T08:27:35.170Z,2.67
2023-01-03T08:30:03.106Z,2.95
2023-01-03T08:32:33.161Z,2.33
2023-01-03T08:35:01.405Z,2.80
2023-01-03T08:37:29.672Z,4.07
2023-01-03T08:40:00.852Z,4.03
2023-01-03T08:42:28.945Z,3.63
2023-01-03T08:45:03.133Z,2.38
2023-01-03T08:47:31.412Z,4.07
2023-01-03T08:50:00.646Z,4.30
2023-01-03T08:52:33.225Z,6.50
2023-01-03T08:55:03.082Z,3.67
2023-01-03T08:57:30.929Z,4.03
2023-01-03T09:00:00.050Z,2.00
2023-01-03T09:02:28.099Z,2.10
2023-01-03T09:04:56.128Z,4.00
2023-01-03T09:07:24.013Z,6.65
2023-01-03T09:09:51.802Z,3.22
2023-01-03T09:12:19.625Z,2.55
2023-01-03T09:14:47.489Z,2.75
2023-01-03T09:17:16.680Z,3.05
2023-01-03T09:19:44.474Z,3.42
2023-01-03T09:22:12.312Z,2.35
2023-01-03T09:24:40.148Z,2.60
2023-01-03T09:27:07.984Z,2.38
2023-01-03T09:29:35.837Z,3.40
2023-01-03T09:32:03.912Z,2.83
2023-01-03T09:34:33.140Z,3.80
2023-01-03T09:37:00.971Z,5.70
2023-01-03T09:39:28.779Z,3.42
2023-01-03T09:42:14.129Z,3.40
2023-01-03T09:44:42.260Z,4.00
2023-01-03T09:47:17.287Z,3.35
2023-01-03T09:50:18.451Z,4.07
2023-01-03T09:53:01.521Z,5.78
2023-01-03T09:55:55.092Z,7.13
2023-01-03T09:58:40.567Z,5.10
2023-01-03T10:01:39.174Z,4.15
2023-01-03T10:04:24.750Z,5.13
2023-01-03T10:07:05.079Z,3.08
2023-01-03T10:09:40.016Z,2.72
2023-01-03T10:12:18.044Z,3.55
2023-01-03T10:14:59.184Z,3.78
2023-01-03T10:17:32.991Z,5.30
2023-01-03T10:20:30.877Z,3.72
2023-01-03T10:23:04.609Z,4.43
2023-01-03T10:25:32.657Z,3.25
2023-01-03T10:28:03.511Z,3.72
2023-01-03T10:30:42.328Z,2.60
2023-01-03T10:33:24.977Z,5.50
2023-01-03T10:35:52.979Z,2.40
2023-01-03T10:38:23.120Z,3.85
2023-01-03T10:40:54.228Z,2.70
2023-01-03T10:43:32.106Z,3.00
2023-01-03T10:46:01.516Z,5.93
2023-01-03T10:49:00.001Z,2.85
2023-01-03T10:51:35.757Z,4.40
2023-01-03T10:54:20.076Z,4.80
2023-01-03T10:56:48.847Z,3.38
2023-01-03T10:59:22.259Z,5.70
2023-01-03T11:01:59.421Z,5.40
2023-01-03T11:04:28.502Z,3.28
2023-01-03T11:07:15.461Z,3.85
2023-01-03T11:09:51.659Z,3.92
2023-01-03T11:12:29.107Z,4.70
2023-01-03T11:14:58.478Z,3.08
2023-01-03T11:17:28.089Z,5.70
2023-01-03T11:19:57.517Z,7.32
2023-01-03T11:22:38.064Z,6.72
2023-01-03T11:25:20.996Z,5.25
2023-01-03T11:28:10.386Z,3.53
2023-01-03T11:30:49.054Z,4.05
2023-01-03T11:33:29.788Z,7.03
2023-01-03T11:36:14.118Z,3.78
2023-01-03T11:38:51.515Z,3.70
2023-01-03T11:41:38.131Z,3.40
2023-01-03T11:44:27.081Z,2.63
2023-01-03T11:47:09.961Z,3.55
2023-01-03T11:49:51.271Z,4.45
2023-01-03T11:52:28.982Z,6.07
2023-01-03T11:55:30.557Z,10.90
2023-01-03T11:58:17.208Z,7.25
2023-01-03T12:00:51.665Z,6.80
2023-01-03T12:03:31.349Z,5.20
2023-01-03T12:06:08.199Z,5.28
2023-01-03T12:08:49.409Z,4.40
2023-01-03T12:11:53.005Z,4.32
2023-01-03T12:14:25.566Z,3.78
2023-01-03T12:16:58.726Z,4.95
2023-01-03T12:19:34.571Z,4.05
2023-01-03T12:22:11.023Z,4.07
2023-01-03T12:24:45.759Z,6.20
2023-01-03T12:27:18.063Z,3.00
2023-01-03T12:32:24.604Z,3.85
2023-01-03T12:35:03.988Z,5.47
2023-01-03T12:37:37.209Z,2.58
2023-01-03T12:40:14.363Z,4.68
2023-01-03T12:42:49.047Z,3.10
2023-01-03T12:45:34.785Z,6.50
2023-01-03T12:48:09.247Z,4.40
2023-01-03T12:50:43.783Z,4.22
2023-01-03T12:53:20.225Z,14.63
2023-01-03T12:56:03.016Z,4.18
2023-01-03T12:58:44.436Z,4.20
2023-01-03T13:01:17.931Z,3.08
2023-01-03T13:03:50.987Z,3.05
2023-01-03T13:06:22.473Z,4.38
2023-01-03T13:08:57.513Z,4.10
2023-01-03T13:11:34.567Z,3.05
2023-01-03T13:14:06.532Z,3.05
2023-01-03T13:16:46.114Z,6.03
2023-01-03T13:20:02.923Z,5.63
2023-01-03T13:22:58.359Z,2.75
2023-01-03T13:25:44.205Z,3.08
2023-01-03T13:28:33.072Z,5.80
2023-01-03T13:31:47.856Z,4.32
2023-01-03T13:34:35.310Z,4.72
2023-01-03T13:37:18.801Z,4.53
2023-01-03T13:39:57.676Z,6.07
2023-01-03T13:42:31.288Z,6.45
2023-01-03T13:45:35.201Z,3.75
2023-01-03T13:48:16.851Z,4.95
2023-01-03T13:51:18.003Z,3.83
2023-01-03T13:53:55.306Z,6.18
2023-01-03T13:56:25.626Z,6.30
2023-01-03T13:58:55.763Z,4.70
2023-01-03T14:01:34.556Z,4.63
2023-01-03T14:04:32.650Z,3.97
2023-01-03T14:07:34.021Z,4.80
2023-01-03T14:10:16.611Z,3.15
2023-01-03T14:15:27.916Z,3.67
2023-01-03T14:17:58.783Z,4.70
2023-01-03T14:20:32.018Z,6.05
2023-01-03T14:23:23.812Z,4.38
2023-01-03T14:25:54.816Z,5.88
2023-01-03T14:28:26.263Z,5.03
2023-01-03T14:31:02.994Z,3.77
2023-01-03T14:33:48.254Z,2.97
2023-01-03T14:36:18.395Z,3.67
2023-01-03T14:38:50.741Z,2.53
2023-01-03T14:44:00.529Z,4.97
2023-01-03T14:46:29.886Z,2.97
2023-01-03T14:49:03.184Z,2.33
2023-01-03T14:51:34.364Z,2.95
2023-01-03T14:54:05.035Z,7.40
2023-01-03T14:56:33.894Z,4.00
2023-01-03T14:59:03.873Z,5.68
2023-01-03T15:01:31.902Z,4.07
2023-01-03T15:04:01.535Z,3.92
2023-01-03T15:06:31.216Z,3.88
2023-01-03T15:09:01.177Z,3.50
2023-01-03T15:11:33.917Z,3.10
2023-01-03T15:14:04.568Z,6.07
2023-01-03T15:16:34.921Z,2.67
2023-01-03T15:19:07.847Z,3.33
2023-01-03T15:21:35.824Z,4.93
2023-01-03T15:24:03.788Z,4.95
2023-01-03T15:26:41.400Z,3.88
2023-01-03T15:29:14.409Z,4.30
2023-01-03T15:31:51.144Z,3.63
2023-01-03T15:34:23.289Z,4.22
2023-01-03T15:36:56.534Z,4.20
2023-01-03T15:39:26.148Z,3.13
2023-01-03T15:42:43.521Z,2.90
2023-01-03T15:45:10.144Z,4.10
2023-01-03T15:47:38.026Z,4.32
2023-01-03T15:50:06.803Z,4.15
2023-01-03T15:52:34.712Z,6.05
2023-01-03T15:55:02.500Z,5.57
2023-01-03T15:57:32.222Z,4.88
2023-01-03T16:00:02.864Z,5.63
2023-01-03T16:02:31.715Z,5.15
2023-01-03T16:04:59.676Z,4.88
2023-01-03T16:07:27.696Z,5.38
2023-01-03T16:09:55.504Z,5.10
2023-01-03T16:12:30.787Z,6.07
2023-01-03T16:15:00.214Z,9.52
2023-01-03T16:17:29.198Z,7.55
2023-01-03T16:19:58.754Z,9.07
2023-01-03T16:22:35.972Z,8.90
2023-01-03T16:25:05.585Z,6.78
2023-01-03T16:27:33.656Z,9.77
2023-01-03T16:30:02.850Z,8.88
2023-01-03T16:32:31.382Z,12.27
2023-01-03T16:35:01.950Z,8.90
2023-01-03T16:37:30.091Z,6.95
2023-01-03T16:39:58.399Z,6.90
2023-01-03T16:42:28.376Z,8.98
2023-01-03T16:44:57.110Z,7.82
2023-01-03T16:47:31.371Z,9.18
2023-01-03T16:50:01.708Z,7.72
2023-01-03T16:52:34.326Z,6.97
2023-01-03T16:55:05.385Z,10.98
2023-01-03T16:57:33.249Z,9.35
2023-01-03T17:00:01.028Z,8.68
2023-01-03T17:02:30.351Z,10.85
2023-01-03T17:04:58.237Z,14.00
2023-01-03T17:07:26.113Z,10.00
2023-01-03T17:09:53.992Z,12.07
2023-01-03T17:12:24.882Z,12.23
2023-01-03T17:14:53.500Z,12.10
2023-01-03T17:17:23.025Z,10.27
2023-01-03T17:20:07.807Z,11.15
2023-01-03T17:22:35.791Z,11.77
2023-01-03T17:25:03.765Z,11.52
2023-01-03T17:27:33.399Z,14.05
2023-01-03T17:30:03.469Z,14.25
2023-01-03T17:32:31.389Z,10.95
2023-01-03T17:35:00.730Z,15.65
2023-01-03T17:37:28.541Z,10.88
2023-01-03T17:39:58.709Z,12.52
2023-01-03T17:42:28.792Z,12.80
2023-01-03T17:45:23.111Z,15.15
2023-01-03T17:48:08.468Z,13.45
2023-01-03T17:50:37.669Z,12.02
2023-01-03T17:53:05.645Z,11.63
2023-01-03T17:55:33.457Z,12.90
2023-01-03T17:58:02.516Z,14.52
2023-01-03T18:00:31.167Z,12.23
2023-01-03T18:03:00.828Z,10.40
2023-01-03T18:05:30.331Z,9.52
2023-01-03T18:08:02.368Z,8.50
2023-01-03T18:10:40.153Z,8.05
2023-01-03T18:13:21.767Z,7.60
2023-01-03T18:15:49.755Z,8.68
2023-01-03T18:18:18.417Z,11.07
2023-01-03T18:20:46.606Z,10.70
2023-01-03T18:23:20.684Z,9.68
2023-01-03T18:25:48.640Z,11.80
2023-01-03T18:28:18.543Z,11.48
2023-01-03T18:30:46.356Z,11.35
2023-01-03T18:33:14.175Z,9.60
2023-01-03T18:35:42.729Z,11.57
2023-01-03T18:38:24.546Z,11.25
2023-01-03T18:40:54.146Z,14.07
2023-01-03T18:43:25.405Z,13.02
2023-01-03T18:45:53.470Z,14.93
2023-01-03T18:48:22.970Z,14.05
2023-01-03T18:50:58.223Z,12.98
2023-01-03T18:53:31.954Z,16.75
2023-01-03T18:56:00.049Z,13.00
2023-01-03T18:58:32.918Z,14.95
2023-01-03T19:01:01.178Z,15.93
2023-01-03T19:03:30.669Z,14.50
2023-01-03T19:05:59.806Z,15.43
2023-01-03T19:08:31.836Z,15.18
2023-01-03T19:11:05.077Z,24.38
2023-01-03T19:13:49.976Z,16.42
2023-01-03T19:16:20.092Z,19.08
2023-01-03T19:18:48.359Z,17.88
2023-01-03T19:21:19.938Z,20.75
2023-01-03T19:23:56.591Z,20.00
2023-01-03T19:26:28.724Z,18.27
2023-01-03T19:29:00.069Z,19.27
2023-01-03T19:31:39.938Z,18.20
2023-01-03T19:34:27.000Z,23.77
2023-01-03T19:36:54.937Z,22.20
2023-01-03T19:39:25.998Z,22.23
2023-01-03T19:42:14.625Z,21.37
2023-01-03T19:44:42.609Z,22.63
2023-01-03T19:47:13.909Z,23.55
2023-01-03T19:49:42.404Z,15.30
2023-01-03T19:52:10.251Z,17.52
2023-01-03T19:54:39.457Z,16.27
2023-01-03T19:57:17.145Z,16.73
2023-01-03T19:59:50.208Z,14.77
2023-01-03T20:02:37.500Z,17.08
2023-01-03T20:05:15.444Z,14.05
2023-01-03T20:07:43.364Z,17.27
2023-01-03T20:10:16.099Z,14.80
2023-01-03T20:12:44.044Z,13.90
2023-01-03T20:15:19.008Z,14.95
2023-01-03T20:17:46.800Z,13.35
2023-01-03T20:20:16.056Z,11.45
2023-01-03T20:25:37.018Z,10.68
2023-01-03T20:28:05.761Z,9.27
2023-01-03T20:30:34.760Z,10.82
2023-01-03T20:33:02.520Z,11.45
2023-01-03T20:38:25.115Z,9.80
2023-01-03T20:40:55.058Z,10.18
2023-01-03T20:43:25.987Z,8.55
2023-01-03T20:45:56.731Z,9.95
2023-01-03T20:48:26.671Z,9.13
2023-01-03T20:50:57.677Z,9.30
2023-01-03T20:53:26.962Z,11.57
2023-01-03T20:55:57.419Z,11.05
2023-01-03T20:58:26.346Z,10.55
2023-01-03T21:01:01.922Z,10.30
2023-01-03T21:03:34.814Z,11.35
2023-01-03T21:06:03.206Z,10.75
2023-01-03T21:08:48.774Z,9.95
2023-01-03T21:11:17.976Z,8.52
2023-01-03T21:13:45.993Z,10.27
2023-01-03T21:16:25.368Z,11.73
2023-01-03T21:18:55.511Z,10.48
2023-01-03T21:21:24.651Z,10.93
2023-01-03T21:23:54.178Z,12.35
2023-01-03T21:26:23.324Z,10.25
2023-01-03T21:28:51.145Z,8.18
2023-01-03T21:31:21.176Z,9.63
2023-01-03T21:33:49.472Z,8.40
2023-01-03T21:36:24.238Z,8.20
2023-01-03T21:38:52.299Z,7.85
2023-01-03T21:41:22.327Z,9.10
2023-01-03T21:43:54.765Z,9.48
2023-01-03T21:46:25.912Z,8.70
2023-01-03T21:48:54.690Z,12.70
2023-01-03T21:51:35.018Z,12.75
2023-01-03T21:54:06.558Z,12.65
2023-01-03T21:56:36.033Z,13.80
2023-01-03T21:59:05.243Z,12.95
2023-01-03T22:01:53.135Z,14.40
2023-01-03T22:04:20.040Z,17.30
2023-01-03T22:06:47.864Z,16.85
2023-01-03T22:09:29.615Z,17.13
2023-01-03T22:11:57.439Z,13.68
2023-01-03T22:14:26.643Z,12.25
2023-01-03T22:16:54.539Z,11.48
2023-01-03T22:19:22.330Z,7.57
2023-01-03T22:21:50.115Z,7.32
2023-01-03T22:24:17.903Z,5.95
2023-01-03T22:26:45.687Z,7.72
2023-01-03T22:29:13.461Z,9.13
2023-01-03T22:31:42.614Z,9.55
2023-01-03T22:34:10.398Z,5.78
2023-01-03T22:36:38.185Z,5.75
2023-01-03T22:39:05.947Z,5.10
2023-01-03T22:41:33.787Z,6.55
2023-01-03T22:44:01.609Z,21.13
2023-01-03T22:46:29.423Z,15.63
2023-01-03T22:48:58.624Z,4.80
2023-01-03T22:51:26.410Z,4.65
2023-01-03T22:53:54.406Z,17.33
2023-01-03T22:56:22.247Z,7.65
2023-01-03T22:58:50.015Z,4.80
2023-01-03T23:01:20.174Z,6.45
2023-01-03T23:03:48.694Z,3.67
2023-01-03T23:06:20.198Z,4.57
2023-01-03T23:08:51.085Z,5.30
2023-01-03T23:11:38.131Z,4.20
2023-01-03T23:14:09.002Z,4.47
2023-01-03T23:16:36.940Z,4.38
2023-01-03T23:19:07.209Z,5.35
2023-01-03T23:21:36.738Z,4.30
2023-01-03T23:24:04.926Z,5.03
2023-01-03T23:26:32.937Z,5.65
2023-01-03T23:29:01.422Z,4.45
2023-01-03T23:31:29.309Z,12.23
2023-01-03T23:33:57.574Z,11.55
2023-01-03T23:36:26.034Z,15.45
2023-01-03T23:38:55.895Z,17.65
2023-01-03T23:41:23.851Z,24.02
2023-01-03T23:43:51.968Z,14.93
2023-01-03T23:46:21.619Z,21.00
2023-01-03T23:48:49.919Z,22.70
2023-01-03T23:51:17.678Z,22.65
2023-01-03T23:53:45.452Z,24.77
2023-01-03T23:56:17.254Z,21.00
2023-01-03T23:58:45.919Z,20.75
